createdAt,value
2022-12-15T00:00:47.240Z,156.75
2022-12-15T00:03:53.002Z,114.65
2022-12-15T00:06:58.804Z,104.60
2022-12-15T00:10:04.560Z,105.75
2022-12-15T00:13:10.221Z,106.45
2022-12-15T00:16:15.949Z,100.40
2022-12-15T00:19:21.797Z,99.25
2022-12-15T00:22:27.614Z,114.70
2022-12-15T00:25:33.287Z,100.03
2022-12-15T00:28:39.086Z,99.30
2022-12-15T00:31:45.423Z,96.93
2022-12-15T00:34:51.224Z,102.80
2022-12-15T00:37:56.901Z,89.15
2022-12-15T00:40:43.961Z,101.18
2022-12-15T00:43:33.157Z,104.85
2022-12-15T00:46:39.212Z,105.72
2022-12-15T00:49:47.562Z,113.45
2022-12-15T00:52:53.760Z,97.97
2022-12-15T00:55:59.544Z,91.50
2022-12-15T00:59:05.524Z,97.40
2022-12-15T01:02:11.447Z,92.30
2022-12-15T01:05:17.070Z,87.07
2022-12-15T01:08:22.637Z,98.47
2022-12-15T01:11:28.222Z,89.53
2022-12-15T01:14:33.932Z,89.82
2022-12-15T01:17:39.849Z,94.68
2022-12-15T01:20:27.055Z,84.40
2022-12-15T01:23:14.205Z,111.82
2022-12-15T01:26:01.865Z,101.93
2022-12-15T01:28:49.114Z,102.10
2022-12-15T01:31:36.683Z,103.53
2022-12-15T01:34:23.793Z,107.63
2022-12-15T01:37:10.843Z,90.40
2022-12-15T01:40:16.686Z,95.50
2022-12-15T01:43:03.841Z,99.97
2022-12-15T01:45:57.903Z,97.05
2022-12-15T01:48:51.091Z,96.78
2022-12-15T01:51:42.390Z,89.10
2022-12-15T01:54:34.656Z,89.55
2022-12-15T01:57:32.478Z,101.75
2022-12-15T02:00:19.776Z,89.50
2022-12-15T02:03:07.880Z,101.85
2022-12-15T02:05:57.784Z,98.38
2022-12-15T02:08:47.935Z,96.03
2022-12-15T02:11:39.431Z,94.18
2022-12-15T02:14:52.760Z,95.60
2022-12-15T02:18:13.868Z,81.43
2022-12-15T02:21:17.849Z,93.60
2022-12-15T02:24:40.187Z,92.30
2022-12-15T02:27:50.544Z,92.28
2022-12-15T02:31:24.738Z,90.23
2022-12-15T02:34:29.694Z,81.40
2022-12-15T02:37:44.983Z,96.25
2022-12-15T02:40:37.611Z,83.38
2022-12-15T02:43:24.906Z,80.95
2022-12-15T02:46:47.481Z,88.40
2022-12-15T02:49:58.873Z,70.55
2022-12-15T02:52:57.911Z,72.75
2022-12-15T02:55:58.380Z,85.25
2022-12-15T02:58:51.514Z,88.80
2022-12-15T03:01:52.803Z,68.07
2022-12-15T03:04:42.774Z,73.78
2022-12-15T03:07:29.881Z,78.18
2022-12-15T03:10:17.596Z,82.47
2022-12-15T03:13:04.818Z,94.15
2022-12-15T03:15:52.773Z,92.30
2022-12-15T03:18:40.018Z,96.82
2022-12-15T03:21:27.568Z,84.05
2022-12-15T03:24:14.712Z,93.20
2022-12-15T03:27:01.827Z,89.53
2022-12-15T03:29:48.998Z,93.85
2022-12-15T03:32:35.988Z,100.35
2022-12-15T03:35:23.385Z,96.53
2022-12-15T03:38:10.490Z,97.68
2022-12-15T03:40:57.775Z,88.35
2022-12-15T03:43:46.284Z,93.05
2022-12-15T03:46:37.126Z,95.80
2022-12-15T03:49:24.199Z,96.10
2022-12-15T03:52:11.451Z,86.22
2022-12-15T03:54:58.763Z,85.60
2022-12-15T03:57:45.952Z,82.32
2022-12-15T04:00:33.088Z,79.30
2022-12-15T04:03:20.396Z,93.55
2022-12-15T04:06:07.728Z,97.05
2022-12-15T04:08:54.841Z,87.10
2022-12-15T04:11:41.998Z,96.55
2022-12-15T04:14:30.075Z,93.55
2022-12-15T04:17:17.273Z,82.40
2022-12-15T04:20:11.733Z,76.93
2022-12-15T04:22:59.101Z,73.82
2022-12-15T04:26:04.850Z,79.60
2022-12-15T04:29:10.541Z,75.55
2022-12-15T04:32:16.267Z,69.15
2022-12-15T04:35:21.837Z,79.97
2022-12-15T04:38:27.544Z,76.65
2022-12-15T04:41:34.263Z,75.07
2022-12-15T04:44:39.928Z,72.20
2022-12-15T04:47:45.533Z,75.35
2022-12-15T04:50:51.183Z,67.55
2022-12-15T04:53:56.924Z,79.30
2022-12-15T04:57:02.543Z,77.32
2022-12-15T05:00:08.236Z,62.92
2022-12-15T05:03:18.342Z,61.92
2022-12-15T05:06:24.484Z,70.22
2022-12-15T05:09:30.243Z,73.57
2022-12-15T05:12:35.805Z,61.80
2022-12-15T05:15:41.645Z,74.05
2022-12-15T05:18:47.464Z,67.65
2022-12-15T05:21:53.006Z,61.22
2022-12-15T05:24:58.733Z,56.08
2022-12-15T05:28:04.508Z,60.13
2022-12-15T05:31:10.203Z,57.13
2022-12-15T05:34:04.491Z,57.80
2022-12-15T05:36:57.177Z,62.33
2022-12-15T05:39:44.200Z,67.57
2022-12-15T05:42:31.269Z,53.38
2022-12-15T05:45:18.456Z,54.80
2022-12-15T05:48:06.240Z,61.08
2022-12-15T05:50:53.445Z,58.55
2022-12-15T05:53:42.071Z,58.88
2022-12-15T05:56:29.746Z,55.30
2022-12-15T05:59:17.254Z,56.40
2022-12-15T06:02:04.659Z,50.25
2022-12-15T06:04:52.165Z,59.35
2022-12-15T06:07:39.384Z,56.15
2022-12-15T06:10:26.456Z,56.55
2022-12-15T06:13:13.531Z,50.78
2022-12-15T06:16:10.987Z,54.90
2022-12-15T06:19:00.656Z,54.25
2022-12-15T06:21:48.121Z,51.70
2022-12-15T06:24:35.621Z,46.38
2022-12-15T06:27:22.686Z,53.72
2022-12-15T06:30:10.362Z,50.72
2022-12-15T06:32:57.560Z,62.83
2022-12-15T06:35:45.138Z,64.75
2022-12-15T06:38:32.732Z,49.42
2022-12-15T06:41:21.909Z,57.80
2022-12-15T06:44:13.183Z,54.17
2022-12-15T06:47:00.355Z,54.22
2022-12-15T06:49:47.570Z,57.55
2022-12-15T06:52:34.655Z,64.43
2022-12-15T06:55:21.682Z,60.35
2022-12-15T06:58:08.835Z,60.85
2022-12-15T07:00:56.807Z,59.90
2022-12-15T07:03:45.130Z,65.85
2022-12-15T07:06:37.549Z,63.28
2022-12-15T07:09:26.151Z,58.33
2022-12-15T07:12:13.242Z,71.03
2022-12-15T07:15:00.361Z,64.97
2022-12-15T07:17:47.538Z,72.38
2022-12-15T07:20:34.794Z,68.82
2022-12-15T07:23:39.741Z,65.93
2022-12-15T07:26:30.371Z,66.10
2022-12-15T07:29:22.844Z,68.68
2022-12-15T07:32:11.482Z,60.38
2022-12-15T07:34:58.495Z,65.28
2022-12-15T07:37:45.619Z,69.63
2022-12-15T07:40:32.785Z,77.47
2022-12-15T07:43:21.474Z,74.32
2022-12-15T07:46:08.929Z,63.22
2022-12-15T07:48:56.127Z,75.40
2022-12-15T07:51:44.002Z,74.88
2022-12-15T07:54:31.288Z,68.63
2022-12-15T07:57:19.062Z,67.88
2022-12-15T08:00:07.022Z,74.32
2022-12-15T08:03:02.786Z,66.40
2022-12-15T08:05:50.184Z,67.95
2022-12-15T08:08:37.651Z,61.75
2022-12-15T08:11:25.950Z,68.40
2022-12-15T08:14:17.637Z,61.45
2022-12-15T08:17:05.913Z,66.28
2022-12-15T08:19:58.593Z,62.72
2022-12-15T08:22:46.136Z,56.08
2022-12-15T08:25:33.652Z,58.35
2022-12-15T08:28:20.972Z,56.60
2022-12-15T08:31:13.975Z,53.13
2022-12-15T08:34:02.377Z,50.67
2022-12-15T08:36:49.535Z,51.10
2022-12-15T08:39:37.176Z,54.22
2022-12-15T08:42:24.336Z,55.50
2022-12-15T08:45:14.190Z,55.67
2022-12-15T08:48:01.257Z,48.83
2022-12-15T08:50:48.417Z,50.25
2022-12-15T08:53:35.593Z,51.63
2022-12-15T08:56:24.507Z,52.05
2022-12-15T08:59:11.701Z,46.28
2022-12-15T09:01:59.399Z,49.45
2022-12-15T09:04:46.623Z,43.25
2022-12-15T09:07:34.325Z,42.70
2022-12-15T09:10:22.311Z,37.50
2022-12-15T09:13:09.488Z,44.22
2022-12-15T09:16:10.651Z,53.65
2022-12-15T09:19:02.421Z,51.83
2022-12-15T09:21:49.586Z,55.72
2022-12-15T09:24:37.453Z,59.45
2022-12-15T09:27:24.567Z,63.70
2022-12-15T09:30:12.108Z,53.28
2022-12-15T09:32:59.259Z,46.80
2022-12-15T09:35:54.476Z,55.97
2022-12-15T09:38:42.918Z,44.13
2022-12-15T09:41:32.798Z,48.03
2022-12-15T09:44:22.764Z,51.95
2022-12-15T09:47:30.605Z,43.22
2022-12-15T09:50:23.086Z,46.72
2022-12-15T09:53:36.656Z,42.10
2022-12-15T09:56:28.512Z,41.40
2022-12-15T09:59:30.762Z,38.90
2022-12-15T10:02:55.857Z,38.17
2022-12-15T10:06:16.237Z,42.25
2022-12-15T10:09:13.627Z,38.88
2022-12-15T10:12:07.031Z,36.25
2022-12-15T10:15:25.392Z,39.03
2022-12-15T10:18:25.367Z,42.70
2022-12-15T10:21:15.558Z,44.10
2022-12-15T10:24:17.644Z,37.50
2022-12-15T10:27:14.596Z,44.72
2022-12-15T10:30:09.289Z,43.22
2022-12-15T10:33:16.723Z,38.38
2022-12-15T10:36:15.594Z,38.35
2022-12-15T10:39:03.196Z,37.08
2022-12-15T10:42:25.928Z,41.50
2022-12-15T10:45:37.858Z,37.88
2022-12-15T10:48:25.292Z,38.13
2022-12-15T10:51:20.531Z,37.13
2022-12-15T10:54:15.697Z,40.28
2022-12-15T10:57:30.391Z,34.22
2022-12-15T11:00:19.375Z,33.22
2022-12-15T11:03:26.353Z,37.53
2022-12-15T11:06:20.354Z,38.88
2022-12-15T11:09:25.718Z,41.95
2022-12-15T11:12:40.290Z,40.92
2022-12-15T11:15:39.101Z,36.78
2022-12-15T11:18:29.180Z,34.67
2022-12-15T11:21:34.984Z,41.10
2022-12-15T11:24:40.457Z,41.45
2022-12-15T11:27:38.888Z,42.58
2022-12-15T11:30:39.794Z,45.92
2022-12-15T11:33:27.225Z,42.83
2022-12-15T11:36:22.397Z,40.22
2022-12-15T11:39:41.760Z,45.30
2022-12-15T11:42:35.778Z,42.17
2022-12-15T11:45:36.902Z,44.95
2022-12-15T11:48:52.328Z,36.97
2022-12-15T11:52:13.852Z,40.53
2022-12-15T11:58:10.327Z,39.47
2022-12-15T12:01:08.111Z,34.13
2022-12-15T12:04:07.228Z,43.05
2022-12-15T12:07:13.462Z,37.72
2022-12-15T12:10:09.889Z,41.65
2022-12-15T12:13:10.598Z,37.75
2022-12-15T12:16:04.688Z,36.35
2022-12-15T12:19:25.604Z,38.05
2022-12-15T12:22:36.534Z,38.42
2022-12-15T12:25:25.940Z,45.85
2022-12-15T12:28:20.810Z,39.95
2022-12-15T12:31:21.768Z,44.80
2022-12-15T12:34:19.224Z,39.15
2022-12-15T12:37:31.125Z,39.25
2022-12-15T12:40:24.996Z,39.83
2022-12-15T12:43:39.494Z,37.28
2022-12-15T12:46:45.424Z,32.75
2022-12-15T12:49:43.902Z,37.30
2022-12-15T12:52:35.006Z,37.67
2022-12-15T12:58:48.453Z,36.47
2022-12-15T13:01:39.917Z,34.35
2022-12-15T13:04:30.275Z,38.30
2022-12-15T13:07:32.002Z,41.03
2022-12-15T13:10:21.697Z,35.15
2022-12-15T13:13:18.840Z,37.33
2022-12-15T13:16:26.795Z,32.63
2022-12-15T13:19:14.900Z,36.03
2022-12-15T13:22:02.733Z,39.05
2022-12-15T13:24:51.369Z,43.45
2022-12-15T13:27:40.759Z,38.65
2022-12-15T13:30:28.328Z,39.25
2022-12-15T13:33:19.631Z,35.60
2022-12-15T13:38:56.468Z,36.70
2022-12-15T13:45:14.074Z,31.63
2022-12-15T13:48:12.294Z,33.10
2022-12-15T13:51:21.610Z,35.35
2022-12-15T13:54:10.141Z,34.70
2022-12-15T13:57:14.534Z,35.72
2022-12-15T14:00:19.272Z,35.90
2022-12-15T14:03:12.017Z,34.20
2022-12-15T14:06:00.267Z,37.47
2022-12-15T14:08:50.831Z,30.80
2022-12-15T14:11:54.763Z,34.03
2022-12-15T14:14:49.584Z,32.05
2022-12-15T14:17:36.986Z,32.13
2022-12-15T14:20:29.152Z,33.20
2022-12-15T14:23:21.886Z,31.75
2022-12-15T14:26:12.187Z,34.38
2022-12-15T14:29:05.679Z,36.30
2022-12-15T14:31:58.156Z,38.25
2022-12-15T14:34:50.576Z,36.65
2022-12-15T14:37:38.195Z,34.67
2022-12-15T14:43:39.013Z,34.88
2022-12-15T14:46:28.342Z,32.88
2022-12-15T14:49:31.671Z,40.25
2022-12-15T14:52:25.006Z,26.10
2022-12-15T14:55:21.351Z,37.58
2022-12-15T14:58:32.318Z,38.90
2022-12-15T15:01:24.181Z,36.88
2022-12-15T15:03:07.530Z,40.10
2022-12-15T15:04:31.590Z,44.25
2022-12-15T15:07:19.442Z,43.22
2022-12-15T15:10:22.160Z,36.38
2022-12-15T15:13:26.433Z,45.08
2022-12-15T15:16:17.427Z,43.78
2022-12-15T15:19:05.649Z,43.47
2022-12-15T15:21:53.123Z,40.20
2022-12-15T15:24:41.001Z,40.78
2022-12-15T15:27:39.960Z,34.22
2022-12-15T15:30:27.234Z,38.63
2022-12-15T15:33:14.793Z,49.03
2022-12-15T15:36:03.002Z,40.25
2022-12-15T15:38:52.156Z,39.90
2022-12-15T15:41:39.734Z,45.55
2022-12-15T15:44:27.745Z,45.30
2022-12-15T15:47:25.155Z,45.92
2022-12-15T15:50:15.853Z,39.03
2022-12-15T15:53:04.301Z,43.67
2022-12-15T15:55:53.337Z,44.40
2022-12-15T15:58:41.185Z,35.38
2022-12-15T16:01:30.487Z,44.38
2022-12-15T16:04:17.693Z,41.85
2022-12-15T16:07:05.312Z,45.15
2022-12-15T16:09:53.895Z,41.30
2022-12-15T16:12:45.302Z,46.97
2022-12-15T16:15:32.692Z,41.00
2022-12-15T16:18:20.612Z,42.03
2022-12-15T16:21:12.693Z,46.10
2022-12-15T16:24:00.636Z,41.22
2022-12-15T16:26:50.561Z,40.65
2022-12-15T16:29:38.411Z,42.60
2022-12-15T16:32:26.180Z,37.42
2022-12-15T16:35:13.545Z,42.45
2022-12-15T16:38:03.970Z,37.95
2022-12-15T16:40:51.589Z,38.63
2022-12-15T16:43:44.524Z,40.33
2022-12-15T16:46:36.230Z,41.28
2022-12-15T16:49:23.444Z,37.38
2022-12-15T16:52:21.065Z,49.80
2022-12-15T16:55:16.890Z,45.88
2022-12-15T16:58:06.798Z,38.28
2022-12-15T17:00:54.509Z,41.15
2022-12-15T17:03:43.041Z,43.20
2022-12-15T17:06:30.364Z,40.15
2022-12-15T17:09:22.441Z,51.85
2022-12-15T17:12:17.596Z,46.00
2022-12-15T17:15:18.434Z,50.85
2022-12-15T17:18:05.990Z,42.50
2022-12-15T17:21:18.116Z,40.15
2022-12-15T17:24:09.064Z,44.83
2022-12-15T17:26:56.259Z,49.58
2022-12-15T17:29:44.756Z,41.85
2022-12-15T17:32:31.965Z,43.33
2022-12-15T17:35:19.409Z,49.42
2022-12-15T17:38:09.122Z,42.85
2022-12-15T17:40:57.357Z,44.35
2022-12-15T17:43:45.429Z,38.70
2022-12-15T17:46:32.730Z,47.13
2022-12-15T17:49:21.555Z,33.05
2022-12-15T17:52:29.172Z,39.75
2022-12-15T17:55:34.604Z,41.65
2022-12-15T17:58:25.307Z,41.28
2022-12-15T18:01:13.884Z,53.25
2022-12-15T18:04:01.113Z,49.03
2022-12-15T18:06:48.387Z,41.70
2022-12-15T18:09:35.627Z,47.25
2022-12-15T18:12:26.204Z,45.05
2022-12-15T18:15:23.016Z,43.20
2022-12-15T18:18:11.254Z,42.15
2022-12-15T18:21:08.215Z,44.63
2022-12-15T18:23:55.528Z,45.83
2022-12-15T18:26:43.472Z,39.70
2022-12-15T18:29:30.707Z,44.00
2022-12-15T18:32:19.279Z,49.45
2022-12-15T18:35:22.590Z,45.30
2022-12-15T18:38:17.283Z,45.38
2022-12-15T18:41:04.613Z,47.35
2022-12-15T18:43:51.801Z,41.72
2022-12-15T18:46:42.048Z,43.55
2022-12-15T18:49:33.574Z,44.40
2022-12-15T18:52:23.473Z,40.30
2022-12-15T18:55:21.320Z,35.17
2022-12-15T18:58:21.075Z,32.60
2022-12-15T19:01:09.274Z,38.90
2022-12-15T19:03:56.480Z,33.30
2022-12-15T19:06:44.774Z,33.00
2022-12-15T19:09:32.257Z,30.50
2022-12-15T19:12:19.427Z,33.80
2022-12-15T19:15:09.974Z,35.85
2022-12-15T19:18:15.792Z,32.65
2022-12-15T19:21:34.202Z,35.67
2022-12-15T19:24:46.466Z,29.90
2022-12-15T19:27:33.869Z,32.22
2022-12-15T19:30:22.050Z,34.80
2022-12-15T19:33:11.234Z,32.70
2022-12-15T19:35:58.773Z,31.08
2022-12-15T19:38:46.613Z,34.55
2022-12-15T19:41:36.281Z,35.08
2022-12-15T19:44:26.234Z,31.45
2022-12-15T19:47:13.676Z,34.13
2022-12-15T19:50:00.773Z,36.30
2022-12-15T19:52:51.731Z,30.48
2022-12-15T19:55:39.709Z,31.98
2022-12-15T19:58:31.364Z,34.83
2022-12-15T20:01:20.990Z,32.20
2022-12-15T20:04:08.341Z,38.05
2022-12-15T20:06:55.671Z,33.53
2022-12-15T20:09:42.810Z,36.28
2022-12-15T20:12:29.936Z,32.15
2022-12-15T20:15:20.535Z,33.15
2022-12-15T20:18:08.071Z,35.80
2022-12-15T20:20:55.683Z,37.63
2022-12-15T20:23:50.964Z,36.95
2022-12-15T20:26:39.312Z,37.40
2022-12-15T20:29:31.833Z,33.80
2022-12-15T20:32:21.151Z,33.00
2022-12-15T20:35:08.291Z,32.92
2022-12-15T20:37:55.438Z,35.67
2022-12-15T20:40:42.820Z,38.92
2022-12-15T20:43:32.387Z,37.33
2022-12-15T20:46:22.796Z,35.78
2022-12-15T20:49:18.849Z,33.20
2022-12-15T20:52:06.266Z,33.42
2022-12-15T20:54:54.676Z,35.83
2022-12-15T20:57:41.839Z,32.45
2022-12-15T21:00:29.004Z,32.80
2022-12-15T21:03:23.731Z,35.63
2022-12-15T21:06:11.183Z,30.98
2022-12-15T21:08:58.513Z,29.35
2022-12-15T21:11:48.282Z,34.58
2022-12-15T21:14:35.397Z,32.08
2022-12-15T21:17:25.809Z,34.83
2022-12-15T21:20:14.017Z,34.90
2022-12-15T21:23:01.419Z,33.85
2022-12-15T21:25:49.208Z,35.97
2022-12-15T21:28:37.506Z,37.92
2022-12-15T21:31:25.583Z,39.25
2022-12-15T21:34:13.504Z,37.65
2022-12-15T21:37:03.385Z,36.83
2022-12-15T21:39:50.808Z,36.78
2022-12-15T21:42:38.284Z,34.42
2022-12-15T21:45:26.573Z,34.85
2022-12-15T21:48:32.896Z,33.17
2022-12-15T21:51:20.398Z,32.42
2022-12-15T21:54:24.720Z,35.72
2022-12-15T21:57:14.632Z,36.03
2022-12-15T22:00:01.917Z,33.85
2022-12-15T22:02:59.054Z,34.38
2022-12-15T22:05:46.207Z,36.45
2022-12-15T22:08:33.731Z,40.90
2022-12-15T22:11:28.518Z,38.13
2022-12-15T22:14:28.488Z,36.95
2022-12-15T22:17:22.852Z,40.22
2022-12-15T22:20:21.660Z,37.63
2022-12-15T22:23:08.758Z,41.63
2022-12-15T22:25:56.265Z,48.22
2022-12-15T22:28:43.345Z,40.42
2022-12-15T22:31:30.439Z,35.72
2022-12-15T22:34:20.271Z,33.85
2022-12-15T22:37:07.558Z,44.05
2022-12-15T22:39:55.356Z,31.80
2022-12-15T22:42:46.488Z,36.17
2022-12-15T22:48:26.294Z,34.85
2022-12-15T22:51:16.018Z,28.70
2022-12-15T22:54:08.682Z,37.65
2022-12-15T22:57:05.421Z,42.58
2022-12-15T23:00:02.922Z,31.63
2022-12-15T23:02:50.166Z,40.45
2022-12-15T23:05:41.582Z,35.28
2022-12-15T23:08:30.101Z,40.75
2022-12-15T23:11:37.092Z,32.00
2022-12-15T23:14:44.135Z,41.47
2022-12-15T23:17:31.259Z,46.33
2022-12-15T23:20:18.383Z,30.98
2022-12-15T23:23:05.717Z,46.25
2022-12-15T23:25:53.005Z,48.72
2022-12-15T23:28:41.325Z,36.08
2022-12-15T23:31:28.900Z,47.00
2022-12-15T23:34:16.150Z,50.83
2022-12-15T23:37:03.259Z,43.63
2022-12-15T23:39:50.283Z,43.80
2022-12-15T23:42:38.865Z,50.17
2022-12-15T23:45:26.064Z,45.70
2022-12-15T23:48:15.007Z,40.70
2022-12-15T23:51:04.735Z,56.65
2022-12-15T23:53:51.850Z,55.03
2022-12-15T23:56:39.454Z,53.15
2022-12-15T23:59:26.497Z,56.88
